PAS114 WAHS-WIII
Flight info
| Callsign | PAS114 |
|---|---|
| Flight time | 0h 58m |
| Altitude | 30000 |
| Route | KIDET1B KIDET W16 IMU DCT |
| Aircraft | A20N/M-SDE2E3FGHIRWXY/LB1 |
Departure
| Time | 2026-04-13 11:12 |
|---|---|
| Airport | Jenderal Ahmad Yani Airport (WAHS) |
Arrival
| Time | 2026-04-13 12:11 |
|---|---|
| Airport | Soekarno-Hatta International Airport (WIII) |
| Time | Latitude | Longitude | Altitude | Speed | Heading |
|---|---|---|---|---|---|
| 2026-04-13 10:37 | -6.96659 | 110.37393 | 19 ft | 0 kts | 40° |
| 2026-04-13 11:02 | -6.96662 | 110.37391 | 19 ft | 2 kts | 40° |
| 2026-04-13 11:02 | -6.96676 | 110.37379 | 21 ft | 3 kts | 40° |
| 2026-04-13 11:02 | -6.96692 | 110.37366 | 19 ft | 3 kts | 39° |
| 2026-04-13 11:02 | -6.96706 | 110.37355 | 19 ft | 3 kts | 54° |
| 2026-04-13 11:03 | -6.96711 | 110.37340 | 22 ft | 3 kts | 104° |
| 2026-04-13 11:03 | -6.96704 | 110.37321 | 19 ft | 3 kts | 126° |
| 2026-04-13 11:03 | -6.96698 | 110.37314 | 21 ft | 0 kts | 130° |
| 2026-04-13 11:07 | -6.96713 | 110.37332 | 19 ft | 7 kts | 130° |
| 2026-04-13 11:07 | -6.96757 | 110.37384 | 19 ft | 13 kts | 131° |
| 2026-04-13 11:08 | -6.96822 | 110.37461 | 19 ft | 14 kts | 130° |
| 2026-04-13 11:08 | -6.96882 | 110.37533 | 19 ft | 13 kts | 130° |
| 2026-04-13 11:08 | -6.96943 | 110.37546 | 18 ft | 9 kts | 216° |
| 2026-04-13 11:08 | -6.96995 | 110.37504 | 17 ft | 10 kts | 219° |
| 2026-04-13 11:09 | -6.97053 | 110.37455 | 12 ft | 13 kts | 219° |
| 2026-04-13 11:09 | -6.97148 | 110.37430 | 4 ft | 15 kts | 140° |
| 2026-04-13 11:09 | -6.97214 | 110.37503 | 4 ft | 13 kts | 130° |
| 2026-04-13 11:09 | -6.97268 | 110.37568 | 5 ft | 11 kts | 130° |
| 2026-04-13 11:10 | -6.97316 | 110.37624 | 5 ft | 10 kts | 131° |
| 2026-04-13 11:10 | -6.97373 | 110.37692 | 5 ft | 16 kts | 130° |
| 2026-04-13 11:10 | -6.97456 | 110.37789 | 7 ft | 21 kts | 130° |
| 2026-04-13 11:10 | -6.97560 | 110.37911 | 7 ft | 24 kts | 130° |
| 2026-04-13 11:11 | -6.97668 | 110.38045 | 6 ft | 20 kts | 111° |
| 2026-04-13 11:11 | -6.97703 | 110.38111 | 6 ft | 8 kts | 178° |
| 2026-04-13 11:11 | -6.97702 | 110.38074 | 8 ft | 7 kts | 321° |
| 2026-04-13 11:11 | -6.97673 | 110.38046 | 6 ft | 6 kts | 311° |
| 2026-04-13 11:12 | -6.97543 | 110.37894 | 7 ft | 70 kts | 309° |
| 2026-04-13 11:12 | -6.97032 | 110.37290 | 6 ft | 151 kts | 310° |
| 2026-04-13 11:12 | -6.96304 | 110.36423 | 595 ft | 166 kts | 310° |
| 2026-04-13 11:12 | -6.95557 | 110.35508 | 1382 ft | 169 kts | 310° |
| 2026-04-13 11:13 | -6.94840 | 110.34554 | 1806 ft | 178 kts | 305° |
| 2026-04-13 11:13 | -6.94141 | 110.33459 | 2209 ft | 194 kts | 303° |
| 2026-04-13 11:13 | -6.93396 | 110.32256 | 2587 ft | 210 kts | 303° |
| 2026-04-13 11:13 | -6.92583 | 110.30947 | 2954 ft | 230 kts | 302° |
| 2026-04-13 11:14 | -6.91700 | 110.29531 | 3451 ft | 247 kts | 302° |
| 2026-04-13 11:14 | -6.90747 | 110.28007 | 3990 ft | 265 kts | 302° |
| 2026-04-13 11:14 | -6.89745 | 110.26414 | 4631 ft | 279 kts | 302° |
| 2026-04-13 11:14 | -6.88698 | 110.24756 | 5421 ft | 284 kts | 302° |
| 2026-04-13 11:15 | -6.87630 | 110.23070 | 6281 ft | 288 kts | 302° |
| 2026-04-13 11:15 | -6.86547 | 110.21364 | 7084 ft | 291 kts | 302° |
| 2026-04-13 11:15 | -6.84286 | 110.17802 | 8746 ft | 297 kts | 302° |
| 2026-04-13 11:16 | -6.83163 | 110.16035 | 9560 ft | 300 kts | 302° |
| 2026-04-13 11:16 | -6.82028 | 110.14249 | 10226 ft | 307 kts | 302° |
| 2026-04-13 11:16 | -6.79909 | 110.10912 | 10886 ft | 337 kts | 301° |
| 2026-04-13 11:17 | -6.78624 | 110.08894 | 11381 ft | 347 kts | 301° |
| 2026-04-13 11:17 | -6.77326 | 110.06859 | 12029 ft | 351 kts | 301° |
| 2026-04-13 11:17 | -6.76004 | 110.04781 | 12710 ft | 355 kts | 301° |
| 2026-04-13 11:17 | -6.74667 | 110.02676 | 13371 ft | 359 kts | 301° |
| 2026-04-13 11:18 | -6.73316 | 110.00549 | 13988 ft | 362 kts | 301° |
| 2026-04-13 11:18 | -6.71955 | 109.98407 | 14572 ft | 365 kts | 301° |
| 2026-04-13 11:18 | -6.70579 | 109.96240 | 15172 ft | 368 kts | 302° |
| 2026-04-13 11:18 | -6.69196 | 109.94067 | 15766 ft | 370 kts | 302° |
| 2026-04-13 11:19 | -6.67799 | 109.91875 | 16352 ft | 373 kts | 302° |
| 2026-04-13 11:19 | -6.66397 | 109.89672 | 16923 ft | 376 kts | 302° |
| 2026-04-13 11:19 | -6.64983 | 109.87450 | 17497 ft | 378 kts | 302° |
| 2026-04-13 11:19 | -6.63559 | 109.85213 | 18079 ft | 381 kts | 302° |
| 2026-04-13 11:20 | -6.62129 | 109.82966 | 18572 ft | 383 kts | 302° |
| 2026-04-13 11:20 | -6.60839 | 109.80941 | 19003 ft | 386 kts | 302° |
| 2026-04-13 11:20 | -6.59382 | 109.78653 | 19452 ft | 389 kts | 303° |
| 2026-04-13 11:20 | -6.57915 | 109.76347 | 19912 ft | 393 kts | 303° |
| 2026-04-13 11:21 | -6.56434 | 109.74022 | 20377 ft | 396 kts | 303° |
| 2026-04-13 11:21 | -6.54959 | 109.71708 | 20831 ft | 399 kts | 303° |
| 2026-04-13 11:21 | -6.53454 | 109.69350 | 21281 ft | 403 kts | 303° |
| 2026-04-13 11:21 | -6.51933 | 109.66965 | 21735 ft | 406 kts | 303° |
| 2026-04-13 11:22 | -6.50401 | 109.64563 | 22188 ft | 409 kts | 303° |
| 2026-04-13 11:22 | -6.48859 | 109.62142 | 22647 ft | 413 kts | 303° |
| 2026-04-13 11:22 | -6.47312 | 109.59710 | 23104 ft | 416 kts | 303° |
| 2026-04-13 11:22 | -6.45744 | 109.57246 | 23525 ft | 419 kts | 303° |
| 2026-04-13 11:23 | -6.44167 | 109.54773 | 23884 ft | 422 kts | 303° |
| 2026-04-13 11:23 | -6.42574 | 109.52280 | 24252 ft | 424 kts | 303° |
| 2026-04-13 11:23 | -6.40979 | 109.49782 | 24608 ft | 427 kts | 303° |
| 2026-04-13 11:24 | -6.37602 | 109.44493 | 25337 ft | 432 kts | 303° |
| 2026-04-13 11:24 | -6.35977 | 109.41944 | 25678 ft | 434 kts | 303° |
| 2026-04-13 11:24 | -6.34343 | 109.39378 | 26013 ft | 437 kts | 303° |
| 2026-04-13 11:24 | -6.32705 | 109.36795 | 26337 ft | 439 kts | 301° |
| 2026-04-13 11:25 | -6.31356 | 109.34080 | 26669 ft | 441 kts | 291° |
| 2026-04-13 11:25 | -6.30466 | 109.31085 | 26987 ft | 443 kts | 281° |
| 2026-04-13 11:25 | -6.30110 | 109.28048 | 27285 ft | 444 kts | 271° |
| 2026-04-13 11:25 | -6.30118 | 109.24888 | 27579 ft | 447 kts | 269° |
| 2026-04-13 11:26 | -6.30139 | 109.21796 | 27871 ft | 449 kts | 269° |
| 2026-04-13 11:26 | -6.30156 | 109.18645 | 28159 ft | 452 kts | 269° |
| 2026-04-13 11:26 | -6.30168 | 109.15484 | 28454 ft | 454 kts | 269° |
| 2026-04-13 11:26 | -6.30179 | 109.12302 | 28874 ft | 451 kts | 269° |
| 2026-04-13 11:27 | -6.30187 | 109.09194 | 29599 ft | 444 kts | 269° |
| 2026-04-13 11:27 | -6.30195 | 109.06071 | 29837 ft | 449 kts | 269° |
| 2026-04-13 11:27 | -6.30213 | 108.99736 | 29901 ft | 455 kts | 269° |
| 2026-04-13 11:28 | -6.30239 | 108.93367 | 29899 ft | 455 kts | 269° |
| 2026-04-13 11:28 | -6.30266 | 108.86998 | 29899 ft | 455 kts | 269° |
| 2026-04-13 11:29 | -6.30284 | 108.80637 | 29899 ft | 455 kts | 269° |
| 2026-04-13 11:29 | -6.30304 | 108.74271 | 29897 ft | 455 kts | 269° |
| 2026-04-13 11:30 | -6.30322 | 108.67890 | 29899 ft | 456 kts | 269° |
| 2026-04-13 11:30 | -6.30338 | 108.61527 | 29901 ft | 456 kts | 269° |
| 2026-04-13 11:31 | -6.30361 | 108.55147 | 29902 ft | 456 kts | 269° |
| 2026-04-13 11:31 | -6.30382 | 108.48805 | 29898 ft | 456 kts | 269° |
| 2026-04-13 11:32 | -6.30396 | 108.42426 | 29902 ft | 456 kts | 270° |
| 2026-04-13 11:32 | -6.30086 | 108.39254 | 29903 ft | 456 kts | 282° |
| 2026-04-13 11:32 | -6.29153 | 108.36204 | 29895 ft | 456 kts | 294° |
| 2026-04-13 11:33 | -6.27632 | 108.33417 | 29886 ft | 456 kts | 306° |
| 2026-04-13 11:33 | -6.25576 | 108.31000 | 29881 ft | 455 kts | 317° |
| 2026-04-13 11:33 | -6.20459 | 108.27302 | 29884 ft | 454 kts | 328° |
| 2026-04-13 11:34 | -6.17816 | 108.25553 | 29891 ft | 454 kts | 328° |
| 2026-04-13 11:34 | -6.12528 | 108.22050 | 29896 ft | 454 kts | 328° |
| 2026-04-13 11:35 | -6.07256 | 108.18557 | 29901 ft | 454 kts | 328° |
| 2026-04-13 11:35 | -6.02470 | 108.15391 | 29905 ft | 455 kts | 328° |
| 2026-04-13 11:36 | -5.97196 | 108.11893 | 29903 ft | 454 kts | 328° |
| 2026-04-13 11:36 | -5.91921 | 108.08399 | 29899 ft | 454 kts | 328° |
| 2026-04-13 11:37 | -5.86643 | 108.04906 | 29895 ft | 454 kts | 328° |
| 2026-04-13 11:37 | -5.81364 | 108.01419 | 29893 ft | 454 kts | 328° |
| 2026-04-13 11:38 | -5.76076 | 107.97924 | 29901 ft | 454 kts | 328° |
| 2026-04-13 11:38 | -5.70794 | 107.94425 | 29906 ft | 454 kts | 328° |
| 2026-04-13 11:39 | -5.65521 | 107.90941 | 29904 ft | 454 kts | 328° |
| 2026-04-13 11:39 | -5.60239 | 107.87448 | 29904 ft | 454 kts | 328° |
| 2026-04-13 11:40 | -5.54966 | 107.83964 | 29904 ft | 454 kts | 328° |
| 2026-04-13 11:40 | -5.49718 | 107.80506 | 29904 ft | 454 kts | 328° |
| 2026-04-13 11:41 | -5.44446 | 107.77021 | 29903 ft | 454 kts | 328° |
| 2026-04-13 11:41 | -5.39178 | 107.73534 | 29901 ft | 454 kts | 328° |
| 2026-04-13 11:42 | -5.33897 | 107.70041 | 29900 ft | 454 kts | 328° |
| 2026-04-13 11:42 | -5.28617 | 107.66559 | 29895 ft | 454 kts | 328° |
| 2026-04-13 11:42 | -5.26114 | 107.64630 | 29893 ft | 456 kts | 316° |
| 2026-04-13 11:43 | -5.24156 | 107.62129 | 29883 ft | 458 kts | 300° |
| 2026-04-13 11:43 | -5.22847 | 107.59181 | 29692 ft | 465 kts | 286° |
| 2026-04-13 11:43 | -5.22339 | 107.56000 | 29428 ft | 462 kts | 269° |
| 2026-04-13 11:44 | -5.24039 | 107.49540 | 28873 ft | 456 kts | 247° |
| 2026-04-13 11:44 | -5.24828 | 107.47585 | 28702 ft | 455 kts | 247° |
| 2026-04-13 11:44 | -5.26403 | 107.43654 | 28362 ft | 452 kts | 248° |
| 2026-04-13 11:44 | -5.27559 | 107.40734 | 28109 ft | 450 kts | 248° |
| 2026-04-13 11:45 | -5.28701 | 107.37822 | 27864 ft | 447 kts | 248° |
| 2026-04-13 11:45 | -5.29833 | 107.34928 | 27613 ft | 445 kts | 248° |
| 2026-04-13 11:45 | -5.30583 | 107.33011 | 27452 ft | 444 kts | 248° |
| 2026-04-13 11:45 | -5.31711 | 107.30133 | 27208 ft | 442 kts | 248° |
| 2026-04-13 11:46 | -5.32830 | 107.27277 | 26965 ft | 440 kts | 248° |
| 2026-04-13 11:46 | -5.35262 | 107.21078 | 26442 ft | 436 kts | 248° |
| 2026-04-13 11:46 | -5.36363 | 107.18271 | 25962 ft | 431 kts | 248° |
| 2026-04-13 11:47 | -5.37457 | 107.15478 | 25390 ft | 428 kts | 248° |
| 2026-04-13 11:47 | -5.38539 | 107.12707 | 24851 ft | 425 kts | 248° |
| 2026-04-13 11:47 | -5.39612 | 107.09957 | 24321 ft | 422 kts | 248° |
| 2026-04-13 11:47 | -5.40664 | 107.07259 | 23811 ft | 419 kts | 248° |
| 2026-04-13 11:48 | -5.41725 | 107.04542 | 23278 ft | 416 kts | 248° |
| 2026-04-13 11:48 | -5.42776 | 107.01852 | 22754 ft | 412 kts | 248° |
| 2026-04-13 11:48 | -5.43815 | 106.99192 | 22287 ft | 407 kts | 248° |
| 2026-04-13 11:48 | -5.44840 | 106.96565 | 21805 ft | 402 kts | 248° |
| 2026-04-13 11:49 | -5.45910 | 106.93989 | 21325 ft | 398 kts | 242° |
| 2026-04-13 11:49 | -5.49080 | 106.90123 | 20830 ft | 376 kts | 217° |
| 2026-04-13 11:49 | -5.51265 | 106.88708 | 20324 ft | 373 kts | 205° |
| 2026-04-13 11:50 | -5.53654 | 106.87740 | 19961 ft | 366 kts | 200° |
| 2026-04-13 11:50 | -5.56001 | 106.86842 | 19293 ft | 358 kts | 200° |
| 2026-04-13 11:50 | -5.57369 | 106.86315 | 19010 ft | 357 kts | 201° |
| 2026-04-13 11:50 | -5.59555 | 106.85470 | 18537 ft | 357 kts | 201° |
| 2026-04-13 11:51 | -5.61841 | 106.84585 | 18113 ft | 355 kts | 201° |
| 2026-04-13 11:51 | -5.64140 | 106.83694 | 17626 ft | 353 kts | 201° |
| 2026-04-13 11:51 | -5.66289 | 106.82862 | 17202 ft | 349 kts | 201° |
| 2026-04-13 11:51 | -5.68375 | 106.82056 | 16799 ft | 345 kts | 201° |
| 2026-04-13 11:52 | -5.70587 | 106.81202 | 16202 ft | 337 kts | 201° |
| 2026-04-13 11:52 | -5.72513 | 106.80461 | 15813 ft | 338 kts | 201° |
| 2026-04-13 11:52 | -5.74709 | 106.79616 | 15355 ft | 337 kts | 201° |
| 2026-04-13 11:53 | -5.79080 | 106.77930 | 14505 ft | 334 kts | 201° |
| 2026-04-13 11:53 | -5.81239 | 106.77094 | 14011 ft | 329 kts | 201° |
| 2026-04-13 11:53 | -5.83348 | 106.76272 | 13548 ft | 324 kts | 204° |
| 2026-04-13 11:53 | -5.85290 | 106.75134 | 13089 ft | 324 kts | 218° |
| 2026-04-13 11:54 | -5.86879 | 106.73544 | 12665 ft | 322 kts | 232° |
| 2026-04-13 11:54 | -5.88021 | 106.71620 | 12276 ft | 321 kts | 246° |
| 2026-04-13 11:54 | -5.88842 | 106.69557 | 11804 ft | 321 kts | 247° |
| 2026-04-13 11:54 | -5.89671 | 106.67467 | 11324 ft | 321 kts | 247° |
| 2026-04-13 11:55 | -5.90502 | 106.65387 | 10841 ft | 321 kts | 247° |
| 2026-04-13 11:55 | -5.91329 | 106.63318 | 10448 ft | 317 kts | 247° |
| 2026-04-13 11:55 | -5.92145 | 106.61277 | 10236 ft | 308 kts | 247° |
| 2026-04-13 11:55 | -5.92926 | 106.59323 | 10129 ft | 295 kts | 247° |
| 2026-04-13 11:56 | -5.93682 | 106.57443 | 9956 ft | 286 kts | 246° |
| 2026-04-13 11:56 | -5.94429 | 106.55615 | 9719 ft | 282 kts | 246° |
| 2026-04-13 11:56 | -5.95108 | 106.53966 | 9488 ft | 281 kts | 246° |
| 2026-04-13 11:56 | -5.95852 | 106.52156 | 9276 ft | 280 kts | 246° |
| 2026-04-13 11:57 | -5.96593 | 106.50347 | 9055 ft | 279 kts | 246° |
| 2026-04-13 11:57 | -5.97327 | 106.48548 | 8838 ft | 278 kts | 246° |
| 2026-04-13 11:57 | -5.98859 | 106.44780 | 8389 ft | 277 kts | 246° |
| 2026-04-13 11:58 | -5.99587 | 106.42990 | 8168 ft | 276 kts | 246° |
| 2026-04-13 11:58 | -6.00315 | 106.41206 | 7951 ft | 276 kts | 246° |
| 2026-04-13 11:58 | -6.01040 | 106.39423 | 7740 ft | 276 kts | 246° |
| 2026-04-13 11:58 | -6.01518 | 106.38245 | 7600 ft | 275 kts | 247° |
| 2026-04-13 11:59 | -6.02477 | 106.35887 | 7318 ft | 274 kts | 246° |
| 2026-04-13 11:59 | -6.04143 | 106.32678 | 7094 ft | 243 kts | 220° |
| 2026-04-13 11:59 | -6.05559 | 106.31877 | 6946 ft | 230 kts | 193° |
| 2026-04-13 12:00 | -6.07132 | 106.31807 | 6717 ft | 226 kts | 169° |
| 2026-04-13 12:00 | -6.08723 | 106.32102 | 6478 ft | 221 kts | 168° |
| 2026-04-13 12:00 | -6.10221 | 106.32375 | 6271 ft | 216 kts | 169° |
| 2026-04-13 12:00 | -6.11671 | 106.32635 | 6056 ft | 211 kts | 169° |
| 2026-04-13 12:01 | -6.13098 | 106.32888 | 5854 ft | 206 kts | 169° |
| 2026-04-13 12:01 | -6.14490 | 106.33133 | 5691 ft | 199 kts | 169° |
| 2026-04-13 12:01 | -6.15843 | 106.33371 | 5477 ft | 192 kts | 169° |
| 2026-04-13 12:01 | -6.17120 | 106.33594 | 5284 ft | 185 kts | 169° |
| 2026-04-13 12:02 | -6.18371 | 106.33811 | 5162 ft | 174 kts | 169° |
| 2026-04-13 12:02 | -6.19498 | 106.34045 | 5094 ft | 160 kts | 160° |
| 2026-04-13 12:02 | -6.20453 | 106.34543 | 5033 ft | 154 kts | 141° |
| 2026-04-13 12:02 | -6.21202 | 106.35299 | 4910 ft | 154 kts | 124° |
| 2026-04-13 12:03 | -6.21773 | 106.36211 | 4774 ft | 153 kts | 121° |
| 2026-04-13 12:03 | -6.22338 | 106.37122 | 4657 ft | 153 kts | 121° |
| 2026-04-13 12:03 | -6.23391 | 106.38875 | 4411 ft | 152 kts | 112° |
| 2026-04-13 12:04 | -6.23647 | 106.39906 | 4287 ft | 152 kts | 93° |
| 2026-04-13 12:04 | -6.23440 | 106.40938 | 4153 ft | 153 kts | 73° |
| 2026-04-13 12:04 | -6.23078 | 106.42055 | 4033 ft | 152 kts | 71° |
| 2026-04-13 12:04 | -6.22715 | 106.43053 | 3908 ft | 151 kts | 70° |
| 2026-04-13 12:05 | -6.22337 | 106.44040 | 3788 ft | 151 kts | 69° |
| 2026-04-13 12:05 | -6.21953 | 106.45022 | 3667 ft | 151 kts | 69° |
| 2026-04-13 12:05 | -6.21565 | 106.46002 | 3603 ft | 151 kts | 69° |
| 2026-04-13 12:05 | -6.21176 | 106.46983 | 3472 ft | 150 kts | 69° |
| 2026-04-13 12:06 | -6.20790 | 106.47954 | 3298 ft | 149 kts | 69° |
| 2026-04-13 12:06 | -6.20406 | 106.48921 | 3124 ft | 149 kts | 68° |
| 2026-04-13 12:06 | -6.20023 | 106.49883 | 2931 ft | 148 kts | 68° |
| 2026-04-13 12:06 | -6.19639 | 106.50848 | 2738 ft | 148 kts | 68° |
| 2026-04-13 12:07 | -6.19257 | 106.51807 | 2560 ft | 148 kts | 68° |
| 2026-04-13 12:07 | -6.18875 | 106.52766 | 2367 ft | 147 kts | 69° |
| 2026-04-13 12:07 | -6.18496 | 106.53717 | 2177 ft | 147 kts | 68° |
| 2026-04-13 12:07 | -6.18115 | 106.54674 | 1985 ft | 147 kts | 69° |
| 2026-04-13 12:08 | -6.17737 | 106.55623 | 1797 ft | 145 kts | 68° |
| 2026-04-13 12:08 | -6.17365 | 106.56559 | 1623 ft | 142 kts | 68° |
| 2026-04-13 12:08 | -6.17006 | 106.57458 | 1439 ft | 139 kts | 68° |
| 2026-04-13 12:08 | -6.16649 | 106.58356 | 1262 ft | 139 kts | 68° |
| 2026-04-13 12:09 | -6.16022 | 106.59929 | 960 ft | 138 kts | 69° |
| 2026-04-13 12:09 | -6.15666 | 106.60824 | 795 ft | 137 kts | 68° |
| 2026-04-13 12:09 | -6.15334 | 106.61657 | 639 ft | 136 kts | 67° |
| 2026-04-13 12:10 | -6.14986 | 106.62530 | 463 ft | 136 kts | 66° |
| 2026-04-13 12:10 | -6.14638 | 106.63403 | 289 ft | 134 kts | 66° |
| 2026-04-13 12:10 | -6.14294 | 106.64271 | 116 ft | 134 kts | 68° |
| 2026-04-13 12:10 | -6.13946 | 106.65126 | 41 ft | 119 kts | 67° |
| 2026-04-13 12:11 | -6.13701 | 106.65735 | 38 ft | 70 kts | 67° |
| 2026-04-13 12:11 | -6.13574 | 106.66052 | 38 ft | 32 kts | 67° |
| 2026-04-13 12:11 | -6.13478 | 106.66203 | 40 ft | 18 kts | 45° |
| 2026-04-13 12:11 | -6.13401 | 106.66267 | 40 ft | 15 kts | 37° |
| 2026-04-13 12:12 | -6.13301 | 106.66302 | 38 ft | 16 kts | 29° |
| 2026-04-13 12:12 | -6.13249 | 106.66400 | 39 ft | 16 kts | 75° |
| 2026-04-13 12:12 | -6.13199 | 106.66508 | 39 ft | 18 kts | 66° |
| 2026-04-13 12:12 | -6.13148 | 106.66633 | 39 ft | 21 kts | 68° |
| 2026-04-13 12:13 | -6.13093 | 106.66771 | 39 ft | 23 kts | 68° |
| 2026-04-13 12:13 | -6.13032 | 106.66924 | 39 ft | 25 kts | 68° |
| 2026-04-13 12:13 | -6.12966 | 106.67088 | 39 ft | 26 kts | 68° |
| 2026-04-13 12:13 | -6.12896 | 106.67262 | 39 ft | 28 kts | 68° |
| 2026-04-13 12:14 | -6.12823 | 106.67445 | 39 ft | 29 kts | 59° |
| 2026-04-13 12:14 | -6.12720 | 106.67620 | 38 ft | 30 kts | 60° |
| 2026-04-13 12:14 | -6.12600 | 106.67787 | 38 ft | 30 kts | 36° |
| 2026-04-13 12:14 | -6.12411 | 106.67855 | 38 ft | 30 kts | 1° |
| 2026-04-13 12:15 | -6.12209 | 106.67803 | 38 ft | 30 kts | 339° |
| 2026-04-13 12:15 | -6.12013 | 106.67726 | 38 ft | 31 kts | 338° |
| 2026-04-13 12:15 | -6.11810 | 106.67645 | 36 ft | 32 kts | 339° |
| 2026-04-13 12:15 | -6.11605 | 106.67564 | 38 ft | 32 kts | 338° |
| 2026-04-13 12:16 | -6.11397 | 106.67483 | 38 ft | 33 kts | 337° |
| 2026-04-13 12:16 | -6.11209 | 106.67405 | 38 ft | 25 kts | 333° |
| 2026-04-13 12:16 | -6.11079 | 106.67305 | 38 ft | 23 kts | 274° |
| 2026-04-13 12:16 | -6.11108 | 106.67144 | 38 ft | 25 kts | 256° |
| 2026-04-13 12:17 | -6.11153 | 106.66970 | 37 ft | 27 kts | 247° |
| 2026-04-13 12:17 | -6.11229 | 106.66877 | 38 ft | 14 kts | 180° |
| 2026-04-13 12:17 | -6.11316 | 106.66904 | 38 ft | 13 kts | 158° |
| 2026-04-13 12:17 | -6.11394 | 106.66935 | 38 ft | 11 kts | 159° |
| 2026-04-13 12:18 | -6.11456 | 106.66911 | 38 ft | 10 kts | 234° |
| 2026-04-13 12:18 | -6.11464 | 106.66859 | 38 ft | 6 kts | 303° |
| 2026-04-13 12:18 | -6.11409 | 106.66843 | 38 ft | 3 kts | 339° |
| 2026-04-13 12:19 | -6.11392 | 106.66836 | 38 ft | 2 kts | 338° |
| 2026-04-13 12:19 | -6.11380 | 106.66831 | 38 ft | 2 kts | 338° |
| 2026-04-13 12:19 | -6.11369 | 106.66827 | 38 ft | 1 kts | 338° |